FLKK

Kenneth Kaunda International Airport

Lusaka, Zambia
METAR FLKK 212100Z 16003KT CAVOK 13/05 Q1022
Observed Flight Rules
Aug-21 @ 21:00 UTC (3 hours ago) Visual Flight Rules
Wind Visibility Clouds
160° at 3 knots 10,000+ meters
  • Clear skies
Temperatures Readings
Current 13°C / 55°F
Dewpoint 5°C / 41°F
Humidity 59%
Altimeter 30.18" Hg
Pressure 1022 hPa
Elevation 1154
METAR FLKK 212100Z 16003KT CAVOK 13/05 Q1022
Observed Flight Rules
Aug-21 @ 21:00 UTC
(3 hours ago)
VFR
Wind Visibility
160° at 3 knots 10,000+ meters
Clouds
  • Clear skies
Temperature Dewpoint
13°C / 55°F 5°C / 41°F
Humidity Altimeter Pressure
59% 30.18" Hg 1022 hPa